sensor_id;sensor_type;location;lat;lon;timestamp;pressure;altitude;pressure_sealevel;temperature;humidity
52745;BME280;38637;49.984;20.426;2023-04-15T00:00:13;98107.75;;;11.16;69.14
52745;BME280;38637;49.984;20.426;2023-04-15T00:02:40;98100.38;;;11.17;68.67
52745;BME280;38637;49.984;20.426;2023-04-15T00:05:06;98107.47;;;11.18;69.04
52745;BME280;38637;49.984;20.426;2023-04-15T00:07:31;98101.69;;;11.19;68.74
52745;BME280;38637;49.984;20.426;2023-04-15T00:09:57;98085.91;;;11.16;69.00
52745;BME280;38637;49.984;20.426;2023-04-15T00:12:23;98103.34;;;11.20;68.64
52745;BME280;38637;49.984;20.426;2023-04-15T00:14:49;98101.69;;;11.19;68.67
52745;BME280;38637;49.984;20.426;2023-04-15T00:17:15;98087.03;;;11.15;68.64
52745;BME280;38637;49.984;20.426;2023-04-15T00:19:41;98077.44;;;11.18;68.53
52745;BME280;38637;49.984;20.426;2023-04-15T00:22:06;98083.16;;;11.16;68.58
52745;BME280;38637;49.984;20.426;2023-04-15T00:24:32;98079.94;;;11.14;68.59
52745;BME280;38637;49.984;20.426;2023-04-15T00:26:58;98097.44;;;11.13;68.85
52745;BME280;38637;49.984;20.426;2023-04-15T00:29:24;98100.47;;;11.12;68.47
52745;BME280;38637;49.984;20.426;2023-04-15T00:31:50;98089.53;;;11.12;68.52
52745;BME280;38637;49.984;20.426;2023-04-15T00:34:15;98067.16;;;11.10;68.68
52745;BME280;38637;49.984;20.426;2023-04-15T00:36:40;98068.50;;;11.12;68.29
52745;BME280;38637;49.984;20.426;2023-04-15T00:39:06;98079.69;;;11.11;67.93
52745;BME280;38637;49.984;20.426;2023-04-15T00:41:31;98074.94;;;11.02;67.93
52745;BME280;38637;49.984;20.426;2023-04-15T00:43:58;98091.31;;;11.02;68.42
52745;BME280;38637;49.984;20.426;2023-04-15T00:46:26;98083.41;;;11.01;68.20
52745;BME280;38637;49.984;20.426;2023-04-15T00:48:51;98094.91;;;10.98;68.23
52745;BME280;38637;49.984;20.426;2023-04-15T00:51:18;98099.56;;;10.97;68.28
52745;BME280;38637;49.984;20.426;2023-04-15T00:53:43;98103.91;;;10.98;68.19
52745;BME280;38637;49.984;20.426;2023-04-15T00:56:08;98097.97;;;10.96;68.15
52745;BME280;38637;49.984;20.426;2023-04-15T00:58:34;98095.22;;;10.96;68.35
52745;BME280;38637;49.984;20.426;2023-04-15T01:00:59;98096.03;;;10.97;68.14
52745;BME280;38637;49.984;20.426;2023-04-15T01:03:25;98096.84;;;10.97;68.39
52745;BME280;38637;49.984;20.426;2023-04-15T01:05:50;98101.50;;;10.97;67.87
52745;BME280;38637;49.984;20.426;2023-04-15T01:08:25;98106.16;;;10.96;68.19
52745;BME280;38637;49.984;20.426;2023-04-15T01:10:52;98108.88;;;10.96;68.01
52745;BME280;38637;49.984;20.426;2023-04-15T01:13:18;98102.31;;;10.97;67.94
52745;BME280;38637;49.984;20.426;2023-04-15T01:15:44;98105.03;;;10.97;68.07
52745;BME280;38637;49.984;20.426;2023-04-15T01:18:09;98106.66;;;10.98;68.06
52745;BME280;38637;49.984;20.426;2023-04-15T01:20:35;98102.03;;;10.99;68.10
52745;BME280;38637;49.984;20.426;2023-04-15T01:23:01;98097.38;;;10.99;68.20
52745;BME280;38637;49.984;20.426;2023-04-15T01:25:33;98100.38;;;10.98;68.42
52745;BME280;38637;49.984;20.426;2023-04-15T01:27:59;98107.78;;;10.97;67.87
52745;BME280;38637;49.984;20.426;2023-04-15T01:30:24;98112.13;;;10.98;67.64
52745;BME280;38637;49.984;20.426;2023-04-15T01:32:51;98111.03;;;10.99;67.39
52745;BME280;38637;49.984;20.426;2023-04-15T01:35:16;98108.56;;;10.98;67.51
52745;BME280;38637;49.984;20.426;2023-04-15T01:37:42;98100.97;;;10.95;67.83
52745;BME280;38637;49.984;20.426;2023-04-15T01:40:08;98091.69;;;10.96;67.77
52745;BME280;38637;49.984;20.426;2023-04-15T01:42:35;98097.22;;;10.91;67.84
52745;BME280;38637;49.984;20.426;2023-04-15T01:45:01;98106.22;;;10.91;67.82
52745;BME280;38637;49.984;20.426;2023-04-15T01:47:26;98116.63;;;10.89;68.08
52745;BME280;38637;49.984;20.426;2023-04-15T01:49:52;98126.25;;;10.87;68.08
52745;BME280;38637;49.984;20.426;2023-04-15T01:52:17;98121.06;;;10.85;67.74
52745;BME280;38637;49.984;20.426;2023-04-15T01:54:43;98122.75;;;10.81;67.72
52745;BME280;38637;49.984;20.426;2023-04-15T01:57:08;98123.94;;;10.75;67.97
52745;BME280;38637;49.984;20.426;2023-04-15T01:59:34;98128.06;;;10.72;67.99
52745;BME280;38637;49.984;20.426;2023-04-15T02:01:59;98128.19;;;10.62;67.71
52745;BME280;38637;49.984;20.426;2023-04-15T02:04:25;98134.06;;;10.50;68.37
52745;BME280;38637;49.984;20.426;2023-04-15T02:06:50;98136.91;;;10.40;68.62
52745;BME280;38637;49.984;20.426;2023-04-15T02:09:16;98145.75;;;10.32;68.62
52745;BME280;38637;49.984;20.426;2023-04-15T02:11:41;98144.69;;;10.28;69.22
52745;BME280;38637;49.984;20.426;2023-04-15T02:14:06;98147.44;;;10.23;69.24
52745;BME280;38637;49.984;20.426;2023-04-15T02:16:32;98144.47;;;10.19;69.08
52745;BME280;38637;49.984;20.426;2023-04-15T02:18:59;98133.84;;;10.18;69.40
52745;BME280;38637;49.984;20.426;2023-04-15T02:21:27;98145.81;;;10.22;69.28
52745;BME280;38637;49.984;20.426;2023-04-15T02:23:53;98151.84;;;10.19;69.12
52745;BME280;38637;49.984;20.426;2023-04-15T02:26:18;98147.19;;;10.19;69.02
52745;BME280;38637;49.984;20.426;2023-04-15T02:28:44;98145.03;;;10.16;69.56
52745;BME280;38637;49.984;20.426;2023-04-15T02:31:10;98143.47;;;10.10;69.58
52745;BME280;38637;49.984;20.426;2023-04-15T02:33:35;98143.25;;;10.06;69.32
52745;BME280;38637;49.984;20.426;2023-04-15T02:36:02;98143.03;;;9.98;69.20
52745;BME280;38637;49.984;20.426;2023-04-15T02:38:27;98147.69;;;9.97;69.62
52745;BME280;38637;49.984;20.426;2023-04-15T02:40:52;98150.50;;;9.92;69.33
52745;BME280;38637;49.984;20.426;2023-04-15T02:43:18;98147.50;;;9.88;69.46
52745;BME280;38637;49.984;20.426;2023-04-15T02:45:44;98139.09;;;9.85;69.43
52745;BME280;38637;49.984;20.426;2023-04-15T02:48:10;98145.13;;;9.82;69.83
52745;BME280;38637;49.984;20.426;2023-04-15T02:50:35;98138.63;;;9.78;69.71
52745;BME280;38637;49.984;20.426;2023-04-15T02:53:03;98128.06;;;9.71;69.66
52745;BME280;38637;49.984;20.426;2023-04-15T02:55:29;98133.44;;;9.76;69.90
52745;BME280;38637;49.984;20.426;2023-04-15T02:57:55;98141.91;;;9.75;70.21
52745;BME280;38637;49.984;20.426;2023-04-15T03:00:22;98135.66;;;9.74;70.09
52745;BME280;38637;49.984;20.426;2023-04-15T03:02:49;98120.72;;;9.66;70.31
52745;BME280;38637;49.984;20.426;2023-04-15T03:05:20;98133.78;;;9.70;70.40
52745;BME280;38637;49.984;20.426;2023-04-15T03:07:47;98136.25;;;9.66;70.51
52745;BME280;38637;49.984;20.426;2023-04-15T03:10:13;98143.34;;;9.67;70.39
52745;BME280;38637;49.984;20.426;2023-04-15T03:12:38;98136.56;;;9.64;70.95
52745;BME280;38637;49.984;20.426;2023-04-15T03:15:05;98130.56;;;9.62;71.26
52745;BME280;38637;49.984;20.426;2023-04-15T03:17:30;98137.63;;;9.63;71.04
52745;BME280;38637;49.984;20.426;2023-04-15T03:19:56;98128.97;;;9.61;71.10
52745;BME280;38637;49.984;20.426;2023-04-15T03:22:21;98136.84;;;9.63;70.87
52745;BME280;38637;49.984;20.426;2023-04-15T03:24:46;98142.28;;;9.63;70.84
52745;BME280;38637;49.984;20.426;2023-04-15T03:27:12;98155.38;;;9.61;70.99
52745;BME280;38637;49.984;20.426;2023-04-15T03:29:37;98144.47;;;9.61;71.15
52745;BME280;38637;49.984;20.426;2023-04-15T03:32:03;98145.03;;;9.58;70.83
52745;BME280;38637;49.984;20.426;2023-04-15T03:34:28;98143.97;;;9.59;71.38
52745;BME280;38637;49.984;20.426;2023-04-15T03:36:54;98157.06;;;9.57;70.78
52745;BME280;38637;49.984;20.426;2023-04-15T03:39:20;98156.50;;;9.55;70.91
52745;BME280;38637;49.984;20.426;2023-04-15T03:41:45;98164.66;;;9.60;70.55
52745;BME280;38637;49.984;20.426;2023-04-15T03:44:11;98170.91;;;9.60;70.70
52745;BME280;38637;49.984;20.426;2023-04-15T03:46:36;98166.59;;;9.54;70.33
52745;BME280;38637;49.984;20.426;2023-04-15T03:49:01;98183.75;;;9.60;70.40
52745;BME280;38637;49.984;20.426;2023-04-15T03:51:27;98197.91;;;9.62;70.34
52745;BME280;38637;49.984;20.426;2023-04-15T03:53:52;98188.63;;;9.63;70.54
52745;BME280;38637;49.984;20.426;2023-04-15T03:56:17;98191.66;;;9.61;70.62
52745;BME280;38637;49.984;20.426;2023-04-15T03:58:43;98187.00;;;9.62;70.47
52745;BME280;38637;49.984;20.426;2023-04-15T04:01:08;98190.00;;;9.60;70.82
52745;BME280;38637;49.984;20.426;2023-04-15T04:03:33;98186.47;;;9.60;70.58
52745;BME280;38637;49.984;20.426;2023-04-15T04:05:59;98192.47;;;9.57;70.30
52745;BME280;38637;49.984;20.426;2023-04-15T04:08:24;98188.66;;;9.58;70.77
52745;BME280;38637;49.984;20.426;2023-04-15T04:10:51;98194.94;;;9.58;70.75
52745;BME280;38637;49.984;20.426;2023-04-15T04:13:16;98198.75;;;9.57;70.27
52745;BME280;38637;49.984;20.426;2023-04-15T04:15:41;98191.91;;;9.60;70.23
52745;BME280;38637;49.984;20.426;2023-04-15T04:18:07;98193.03;;;9.59;70.51
52745;BME280;38637;49.984;20.426;2023-04-15T04:20:32;98190.00;;;9.60;70.18
52745;BME280;38637;49.984;20.426;2023-04-15T04:22:58;98181.56;;;9.62;69.84
52745;BME280;38637;49.984;20.426;2023-04-15T04:25:23;98179.91;;;9.61;69.97
52745;BME280;38637;49.984;20.426;2023-04-15T04:27:48;98188.91;;;9.61;69.88
52745;BME280;38637;49.984;20.426;2023-04-15T04:30:14;98195.41;;;9.65;69.85
52745;BME280;38637;49.984;20.426;2023-04-15T04:32:40;98193.47;;;9.71;70.26
52745;BME280;38637;49.984;20.426;2023-04-15T04:35:05;98205.19;;;9.72;70.28
52745;BME280;38637;49.984;20.426;2023-04-15T04:37:31;98194.81;;;9.74;70.56
52745;BME280;38637;49.984;20.426;2023-04-15T04:39:56;98199.16;;;9.75;70.72
52745;BME280;38637;49.984;20.426;2023-04-15T04:42:21;98196.41;;;9.80;70.43
52745;BME280;38637;49.984;20.426;2023-04-15T04:44:47;98203.44;;;9.86;70.65
52745;BME280;38637;49.984;20.426;2023-04-15T04:47:12;98211.56;;;9.91;70.43
52745;BME280;38637;49.984;20.426;2023-04-15T04:49:38;98205.03;;;9.92;71.19
52745;BME280;38637;49.984;20.426;2023-04-15T04:52:03;98206.59;;;9.98;71.04
52745;BME280;38637;49.984;20.426;2023-04-15T04:54:29;98206.16;;;10.15;70.24
52745;BME280;38637;49.984;20.426;2023-04-15T04:56:55;98215.84;;;10.31;69.92
52745;BME280;38637;49.984;20.426;2023-04-15T04:59:22;98223.59;;;10.48;69.29
52745;BME280;38637;49.984;20.426;2023-04-15T05:01:47;98200.03;;;10.57;69.15
52745;BME280;38637;49.984;20.426;2023-04-15T05:04:12;98211.59;;;10.73;68.38
52745;BME280;38637;49.984;20.426;2023-04-15T05:06:38;98215.81;;;10.85;67.97
52745;BME280;38637;49.984;20.426;2023-04-15T05:09:03;98220.56;;;10.98;67.79
52745;BME280;38637;49.984;20.426;2023-04-15T05:11:28;98232.28;;;11.22;67.32
52745;BME280;38637;49.984;20.426;2023-04-15T05:13:54;98232.97;;;11.52;67.02
52745;BME280;38637;49.984;20.426;2023-04-15T05:16:19;98235.31;;;11.78;66.25
52745;BME280;38637;49.984;20.426;2023-04-15T05:18:45;98230.66;;;11.97;64.97
52745;BME280;38637;49.984;20.426;2023-04-15T05:21:11;98229.56;;;12.12;64.13
52745;BME280;38637;49.984;20.426;2023-04-15T05:23:37;98231.44;;;12.16;63.66
52745;BME280;38637;49.984;20.426;2023-04-15T05:26:02;98239.22;;;12.09;63.42
52745;BME280;38637;49.984;20.426;2023-04-15T05:28:27;98235.75;;;12.04;63.38
52745;BME280;38637;49.984;20.426;2023-04-15T05:30:53;98241.97;;;11.90;63.05
52745;BME280;38637;49.984;20.426;2023-04-15T05:33:18;98235.03;;;11.79;62.91
52745;BME280;38637;49.984;20.426;2023-04-15T05:35:44;98240.69;;;11.83;63.15
52745;BME280;38637;49.984;20.426;2023-04-15T05:38:09;98244.34;;;11.97;62.39
52745;BME280;38637;49.984;20.426;2023-04-15T05:40:35;98233.34;;;12.16;61.86
52745;BME280;38637;49.984;20.426;2023-04-15T05:43:01;98237.63;;;12.22;60.23
52745;BME280;38637;49.984;20.426;2023-04-15T05:45:26;98245.31;;;12.20;59.51
52745;BME280;38637;49.984;20.426;2023-04-15T05:47:51;98248.13;;;12.15;59.51
52745;BME280;38637;49.984;20.426;2023-04-15T05:50:18;98246.22;;;12.15;59.94
52745;BME280;38637;49.984;20.426;2023-04-15T05:52:43;98246.00;;;12.12;60.30
52745;BME280;38637;49.984;20.426;2023-04-15T05:55:10;98255.88;;;11.94;60.34
52745;BME280;38637;49.984;20.426;2023-04-15T05:57:35;98259.44;;;11.94;60.52
52745;BME280;38637;49.984;20.426;2023-04-15T06:00:02;98269.53;;;12.13;60.65
52745;BME280;38637;49.984;20.426;2023-04-15T06:02:28;98269.09;;;12.38;59.80
52745;BME280;38637;49.984;20.426;2023-04-15T06:04:53;98280.22;;;12.75;58.76
52745;BME280;38637;49.984;20.426;2023-04-15T06:07:18;98276.06;;;13.19;57.59
52745;BME280;38637;49.984;20.426;2023-04-15T06:09:44;98280.72;;;13.46;56.70
52745;BME280;38637;49.984;20.426;2023-04-15T06:12:09;98276.13;;;13.55;55.37
52745;BME280;38637;49.984;20.426;2023-04-15T06:14:37;98273.41;;;13.55;54.51
52745;BME280;38637;49.984;20.426;2023-04-15T06:17:02;98283.66;;;13.63;54.83
52745;BME280;38637;49.984;20.426;2023-04-15T06:19:27;98285.41;;;13.59;55.23
52745;BME280;38637;49.984;20.426;2023-04-15T06:21:53;98282.75;;;13.40;54.16
52745;BME280;38637;49.984;20.426;2023-04-15T06:24:19;98288.19;;;13.31;55.38
52745;BME280;38637;49.984;20.426;2023-04-15T06:26:44;98290.38;;;13.16;55.17
52745;BME280;38637;49.984;20.426;2023-04-15T06:29:09;98287.22;;;13.08;55.49
52745;BME280;38637;49.984;20.426;2023-04-15T06:31:35;98288.78;;;13.28;55.08
52745;BME280;38637;49.984;20.426;2023-04-15T06:34:00;98303.41;;;13.38;54.65
52745;BME280;38637;49.984;20.426;2023-04-15T06:36:25;98310.66;;;13.70;54.16
52745;BME280;38637;49.984;20.426;2023-04-15T06:38:52;98299.78;;;14.01;53.35
52745;BME280;38637;49.984;20.426;2023-04-15T06:41:17;98306.28;;;14.50;52.96
52745;BME280;38637;49.984;20.426;2023-04-15T06:43:42;98306.13;;;15.00;51.20
52745;BME280;38637;49.984;20.426;2023-04-15T06:46:08;98308.00;;;15.31;50.59
52745;BME280;38637;49.984;20.426;2023-04-15T06:48:35;98308.69;;;15.45;50.29
52745;BME280;38637;49.984;20.426;2023-04-15T06:51:00;98296.84;;;15.36;49.84
52745;BME280;38637;49.984;20.426;2023-04-15T06:53:25;98311.22;;;15.33;49.98
52745;BME280;38637;49.984;20.426;2023-04-15T06:55:54;98311.41;;;15.28;49.14
52745;BME280;38637;49.984;20.426;2023-04-15T06:58:19;98305.44;;;15.34;49.20
52745;BME280;38637;49.984;20.426;2023-04-15T07:00:45;98313.84;;;15.38;48.73
52745;BME280;38637;49.984;20.426;2023-04-15T07:03:11;98315.34;;;15.53;48.58
52745;BME280;38637;49.984;20.426;2023-04-15T07:05:37;98318.41;;;15.51;47.14
52745;BME280;38637;49.984;20.426;2023-04-15T07:08:03;98326.00;;;15.37;47.81
52745;BME280;38637;49.984;20.426;2023-04-15T07:10:28;98325.66;;;15.38;48.06
52745;BME280;38637;49.984;20.426;2023-04-15T07:12:55;98325.19;;;15.45;47.96
52745;BME280;38637;49.984;20.426;2023-04-15T07:15:21;98334.88;;;15.43;47.24
52745;BME280;38637;49.984;20.426;2023-04-15T07:17:46;98330.75;;;15.62;46.94
52745;BME280;38637;49.984;20.426;2023-04-15T07:20:12;98332.44;;;15.81;47.65
52745;BME280;38637;49.984;20.426;2023-04-15T07:22:38;98325.03;;;16.16;47.73
52745;BME280;38637;49.984;20.426;2023-04-15T07:25:04;98322.72;;;16.36;46.75
52745;BME280;38637;49.984;20.426;2023-04-15T07:27:29;98314.28;;;16.49;46.29
52745;BME280;38637;49.984;20.426;2023-04-15T07:29:55;98321.59;;;16.45;45.93
52745;BME280;38637;49.984;20.426;2023-04-15T07:32:20;98332.91;;;16.52;45.44
52745;BME280;38637;49.984;20.426;2023-04-15T07:34:46;98329.38;;;16.35;45.82
52745;BME280;38637;49.984;20.426;2023-04-15T07:37:11;98330.69;;;16.20;45.79
52745;BME280;38637;49.984;20.426;2023-04-15T07:39:36;98321.59;;;16.11;45.87
52745;BME280;38637;49.984;20.426;2023-04-15T07:42:02;98322.56;;;16.15;46.31
52745;BME280;38637;49.984;20.426;2023-04-15T07:44:28;98329.38;;;16.08;46.95
52745;BME280;38637;49.984;20.426;2023-04-15T07:46:54;98320.31;;;16.17;46.33
52745;BME280;38637;49.984;20.426;2023-04-15T07:49:20;98323.88;;;16.26;46.70
52745;BME280;38637;49.984;20.426;2023-04-15T07:51:45;98330.50;;;15.99;46.66
52745;BME280;38637;49.984;20.426;2023-04-15T07:54:11;98334.72;;;16.14;46.93
52745;BME280;38637;49.984;20.426;2023-04-15T07:56:36;98330.50;;;16.25;46.92
52745;BME280;38637;49.984;20.426;2023-04-15T07:59:02;98332.78;;;16.14;45.15
52745;BME280;38637;49.984;20.426;2023-04-15T08:01:29;98333.91;;;15.96;44.42
52745;BME280;38637;49.984;20.426;2023-04-15T08:03:55;98339.53;;;15.82;45.41
52745;BME280;38637;49.984;20.426;2023-04-15T08:06:21;98342.97;;;15.96;45.38
52745;BME280;38637;49.984;20.426;2023-04-15T08:08:46;98347.66;;;15.87;45.45
52745;BME280;38637;49.984;20.426;2023-04-15T08:11:12;98335.69;;;16.09;45.27
52745;BME280;38637;49.984;20.426;2023-04-15T08:13:37;98340.88;;;16.28;44.95
52745;BME280;38637;49.984;20.426;2023-04-15T08:16:21;98341.34;;;16.56;45.30
52745;BME280;38637;49.984;20.426;2023-04-15T08:18:48;98347.50;;;16.62;43.01
52745;BME280;38637;49.984;20.426;2023-04-15T08:21:14;98348.66;;;16.78;43.82
52745;BME280;38637;49.984;20.426;2023-04-15T08:23:39;98350.38;;;17.00;42.94
52745;BME280;38637;49.984;20.426;2023-04-15T08:26:05;98341.66;;;17.28;43.19
52745;BME280;38637;49.984;20.426;2023-04-15T08:28:30;98346.72;;;17.17;42.25
52745;BME280;38637;49.984;20.426;2023-04-15T08:30:56;98345.94;;;17.08;42.58
52745;BME280;38637;49.984;20.426;2023-04-15T08:33:21;98345.81;;;16.95;42.97
52745;BME280;38637;49.984;20.426;2023-04-15T08:35:48;98350.09;;;16.84;42.38
52745;BME280;38637;49.984;20.426;2023-04-15T08:38:13;98338.41;;;16.70;43.22
52745;BME280;38637;49.984;20.426;2023-04-15T08:40:43;98350.44;;;16.65;44.48
52745;BME280;38637;49.984;20.426;2023-04-15T08:43:17;98350.13;;;16.32;43.69
52745;BME280;38637;49.984;20.426;2023-04-15T08:45:43;98344.13;;;16.30;43.91
52745;BME280;38637;49.984;20.426;2023-04-15T08:48:13;98350.59;;;16.43;44.19
52745;BME280;38637;49.984;20.426;2023-04-15T08:50:40;98349.94;;;16.46;43.92
52745;BME280;38637;49.984;20.426;2023-04-15T08:53:06;98350.59;;;16.60;44.45
52745;BME280;38637;49.984;20.426;2023-04-15T08:55:32;98350.09;;;16.75;43.68
52745;BME280;38637;49.984;20.426;2023-04-15T08:58:01;98337.88;;;16.94;43.59
52745;BME280;38637;49.984;20.426;2023-04-15T09:00:27;98343.81;;;17.13;43.20
52745;BME280;38637;49.984;20.426;2023-04-15T09:02:54;98345.50;;;16.97;42.08
52745;BME280;38637;49.984;20.426;2023-04-15T09:05:20;98343.00;;;17.21;42.40
52745;BME280;38637;49.984;20.426;2023-04-15T09:07:47;98352.84;;;17.31;41.84
52745;BME280;38637;49.984;20.426;2023-04-15T09:10:12;98348.38;;;17.48;41.91
52745;BME280;38637;49.984;20.426;2023-04-15T09:12:38;98348.72;;;17.46;41.17
52745;BME280;38637;49.984;20.426;2023-04-15T09:15:04;98348.63;;;17.34;41.64
52745;BME280;38637;49.984;20.426;2023-04-15T09:17:32;98351.31;;;17.04;41.03
52745;BME280;38637;49.984;20.426;2023-04-15T09:22:32;98347.25;;;17.10;41.90
52745;BME280;38637;49.984;20.426;2023-04-15T09:24:58;98334.75;;;17.13;41.56
52745;BME280;38637;49.984;20.426;2023-04-15T09:27:23;98355.78;;;17.26;41.75
52745;BME280;38637;49.984;20.426;2023-04-15T09:29:49;98344.75;;;17.26;42.23
52745;BME280;38637;49.984;20.426;2023-04-15T09:32:15;98348.09;;;17.02;42.53
52745;BME280;38637;49.984;20.426;2023-04-15T09:34:41;98349.13;;;16.63;43.09
52745;BME280;38637;49.984;20.426;2023-04-15T09:37:06;98358.69;;;16.57;42.66
52745;BME280;38637;49.984;20.426;2023-04-15T09:42:12;98358.34;;;16.84;42.53
52745;BME280;38637;49.984;20.426;2023-04-15T09:44:37;98361.94;;;16.76;43.68
52745;BME280;38637;49.984;20.426;2023-04-15T09:47:03;98359.81;;;16.82;43.43
52745;BME280;38637;49.984;20.426;2023-04-15T09:49:28;98354.47;;;16.85;43.61
52745;BME280;38637;49.984;20.426;2023-04-15T09:51:58;98352.16;;;16.96;42.58
52745;BME280;38637;49.984;20.426;2023-04-15T09:54:24;98355.50;;;17.10;41.72
52745;BME280;38637;49.984;20.426;2023-04-15T09:56:49;98352.78;;;17.02;42.06
52745;BME280;38637;49.984;20.426;2023-04-15T09:59:14;98351.69;;;16.94;42.39
52745;BME280;38637;49.984;20.426;2023-04-15T10:01:41;98352.25;;;17.17;42.65
52745;BME280;38637;49.984;20.426;2023-04-15T10:04:07;98361.06;;;17.02;42.60
52745;BME280;38637;49.984;20.426;2023-04-15T10:06:34;98357.09;;;17.20;42.09
52745;BME280;38637;49.984;20.426;2023-04-15T10:09:00;98358.75;;;17.21;41.41
52745;BME280;38637;49.984;20.426;2023-04-15T10:11:29;98352.22;;;17.26;42.16
52745;BME280;38637;49.984;20.426;2023-04-15T10:13:56;98352.34;;;17.29;41.63
52745;BME280;38637;49.984;20.426;2023-04-15T10:16:21;98356.44;;;17.23;41.21
52745;BME280;38637;49.984;20.426;2023-04-15T10:18:54;98331.88;;;17.39;40.87
52745;BME280;38637;49.984;20.426;2023-04-15T10:21:20;98344.72;;;17.64;41.44
52745;BME280;38637;49.984;20.426;2023-04-15T10:23:46;98358.16;;;17.45;41.47
52745;BME280;38637;49.984;20.426;2023-04-15T10:26:12;98350.25;;;16.79;42.34
52745;BME280;38637;49.984;20.426;2023-04-15T10:28:39;98346.38;;;16.63;42.55
52745;BME280;38637;49.984;20.426;2023-04-15T10:31:05;98349.13;;;16.71;42.96
52745;BME280;38637;49.984;20.426;2023-04-15T10:33:31;98345.53;;;16.80;42.79
52745;BME280;38637;49.984;20.426;2023-04-15T10:35:58;98349.88;;;16.98;42.18
52745;BME280;38637;49.984;20.426;2023-04-15T10:38:40;98346.50;;;16.75;41.91
52745;BME280;38637;49.984;20.426;2023-04-15T10:41:24;98342.59;;;16.93;41.82
52745;BME280;38637;49.984;20.426;2023-04-15T10:44:03;98347.56;;;17.17;40.79
52745;BME280;38637;49.984;20.426;2023-04-15T10:46:40;98338.00;;;17.15;39.80
52745;BME280;38637;49.984;20.426;2023-04-15T10:49:11;98335.13;;;17.32;39.91
52745;BME280;38637;49.984;20.426;2023-04-15T10:51:51;98333.78;;;17.09;40.91
52745;BME280;38637;49.984;20.426;2023-04-15T10:57:36;98337.63;;;16.52;42.64
52745;BME280;38637;49.984;20.426;2023-04-15T10:59:37;98326.94;;;16.59;41.65
52745;BME280;38637;49.984;20.426;2023-04-15T11:02:05;98329.50;;;16.82;41.15
52745;BME280;38637;49.984;20.426;2023-04-15T11:04:56;98332.03;;;16.95;42.24
52745;BME280;38637;49.984;20.426;2023-04-15T11:12:42;98331.44;;;17.28;40.41
52745;BME280;38637;49.984;20.426;2023-04-15T11:17:53;98343.69;;;17.48;40.00
52745;BME280;38637;49.984;20.426;2023-04-15T11:20:18;98338.38;;;17.34;39.93
52745;BME280;38637;49.984;20.426;2023-04-15T11:22:51;98340.81;;;16.89;41.39
52745;BME280;38637;49.984;20.426;2023-04-15T11:25:36;98343.25;;;16.99;41.61
52745;BME280;38637;49.984;20.426;2023-04-15T11:28:02;98340.94;;;17.01;42.25
52745;BME280;38637;49.984;20.426;2023-04-15T11:30:29;98341.97;;;16.79;42.35
52745;BME280;38637;49.984;20.426;2023-04-15T11:33:00;98346.03;;;16.73;41.58
52745;BME280;38637;49.984;20.426;2023-04-15T11:35:27;98354.78;;;16.58;42.28
52745;BME280;38637;49.984;20.426;2023-04-15T11:37:53;98346.06;;;16.38;42.63
52745;BME280;38637;49.984;20.426;2023-04-15T11:40:24;98358.06;;;16.42;42.58
52745;BME280;38637;49.984;20.426;2023-04-15T11:43:12;98354.16;;;16.52;42.47
52745;BME280;38637;49.984;20.426;2023-04-15T11:45:48;98353.66;;;16.76;42.63
52745;BME280;38637;49.984;20.426;2023-04-15T11:48:14;98340.88;;;16.54;42.59
52745;BME280;38637;49.984;20.426;2023-04-15T11:50:40;98343.91;;;16.70;43.20
52745;BME280;38637;49.984;20.426;2023-04-15T11:53:07;98346.81;;;16.73;43.30
52745;BME280;38637;49.984;20.426;2023-04-15T11:55:42;98355.94;;;16.57;42.96
52745;BME280;38637;49.984;20.426;2023-04-15T12:00:38;98349.13;;;16.63;43.29
52745;BME280;38637;49.984;20.426;2023-04-15T12:03:17;98347.53;;;16.53;42.77
52745;BME280;38637;49.984;20.426;2023-04-15T12:08:47;98351.25;;;16.48;42.30
52745;BME280;38637;49.984;20.426;2023-04-15T12:11:13;98349.13;;;16.71;42.73
52745;BME280;38637;49.984;20.426;2023-04-15T12:13:46;98351.81;;;17.06;43.35
52745;BME280;38637;49.984;20.426;2023-04-15T12:16:11;98349.03;;;17.15;42.45
52745;BME280;38637;49.984;20.426;2023-04-15T12:18:37;98342.09;;;17.38;41.75
52745;BME280;38637;49.984;20.426;2023-04-15T12:21:09;98342.38;;;17.75;39.91
52745;BME280;38637;49.984;20.426;2023-04-15T12:23:53;98358.69;;;17.98;40.40
52745;BME280;38637;49.984;20.426;2023-04-15T12:26:26;98350.66;;;18.05;40.05
52745;BME280;38637;49.984;20.426;2023-04-15T12:28:59;98360.56;;;17.85;40.50
52745;BME280;38637;49.984;20.426;2023-04-15T12:31:25;98352.16;;;17.43;41.09
52745;BME280;38637;49.984;20.426;2023-04-15T12:33:50;98356.13;;;17.25;41.16
52745;BME280;38637;49.984;20.426;2023-04-15T12:36:16;98345.50;;;17.35;40.58
52745;BME280;38637;49.984;20.426;2023-04-15T12:38:41;98350.38;;;17.38;41.21
52745;BME280;38637;49.984;20.426;2023-04-15T12:41:06;98356.19;;;17.07;42.02
52745;BME280;38637;49.984;20.426;2023-04-15T12:43:32;98363.94;;;17.14;41.38
52745;BME280;38637;49.984;20.426;2023-04-15T12:45:57;98362.84;;;17.06;41.02
52745;BME280;38637;49.984;20.426;2023-04-15T12:48:23;98354.41;;;17.11;41.78
52745;BME280;38637;49.984;20.426;2023-04-15T12:50:48;98354.06;;;17.04;42.21
52745;BME280;38637;49.984;20.426;2023-04-15T12:53:13;98359.59;;;17.04;42.66
52745;BME280;38637;49.984;20.426;2023-04-15T12:55:39;98367.94;;;16.78;42.91
52745;BME280;38637;49.984;20.426;2023-04-15T12:58:04;98378.94;;;16.43;43.12
52745;BME280;38637;49.984;20.426;2023-04-15T13:00:33;98371.00;;;16.16;43.86
52745;BME280;38637;49.984;20.426;2023-04-15T13:02:58;98372.50;;;16.13;44.34
52745;BME280;38637;49.984;20.426;2023-04-15T13:05:23;98376.84;;;16.05;44.59
52745;BME280;38637;49.984;20.426;2023-04-15T13:07:48;98371.97;;;16.02;45.40
52745;BME280;38637;49.984;20.426;2023-04-15T13:10:14;98383.16;;;15.89;46.20